This is the latest recevied weather packets stored in our database for station/object DD8XX-10. If no packets are shown the sender has not sent any weather packets the latest 10 day(s).
| Time | Temp. | Humidity | Pressure | Rain* | Wind** | Luminosity | Snow |
|---|---|---|---|---|---|---|---|
| 1777772537 | 11.11° C | 63% | 1023 hPa | - | - | - | - |
| 1777771637 | 10.56° C | 63% | 1023.1 hPa | - | - | - | - |
| 1777770737 | 11.11° C | 63% | 1023.2 hPa | - | - | - | - |
| 1777769837 | 11.11° C | 63% | 1023.1 hPa | - | - | - | - |
| 1777768937 | 11.11° C | 63% | 1023.2 hPa | - | - | - | - |
| 1777768036 | 11.11° C | 64% | 1023.3 hPa | - | - | - | - |
| 1777767136 | 11.67° C | 60% | 1023.3 hPa | - | - | - | - |
| 1777766236 | 11.67° C | 62% | 1023.5 hPa | - | - | - | - |
| 1777765336 | 12.22° C | 59% | 1023.5 hPa | - | - | - | - |
| 1777764435 | 11.67° C | 62% | 1023.7 hPa | - | - | - | - |
| 1777763535 | 11.67° C | 64% | 1023.7 hPa | - | - | - | - |
| 1777762635 | 11.67° C | 64% | 1023.8 hPa | - | - | - | - |
| 1777761735 | 11.67° C | 63% | 1023.9 hPa | - | - | - | - |
| 1777760834 | 12.22° C | 61% | 1023.9 hPa | - | - | - | - |
| 1777759934 | 12.22° C | 62% | 1023.9 hPa | - | - | - | - |
| 1777759034 | 12.78° C | 60% | 1024 hPa | - | - | - | - |
| 1777758134 | 12.78° C | 61% | 1023.9 hPa | - | - | - | - |
| 1777757234 | 12.78° C | 60% | 1023.9 hPa | - | - | - | - |
| 1777756334 | 13.33° C | 59% | 1024 hPa | - | - | - | - |
| 1777755434 | 13.89° C | 55% | 1023.9 hPa | - | - | - | - |
| 1777754534 | 13.89° C | 60% | 1024 hPa | - | - | - | - |
| 1777753634 | 14.44° C | 57% | 1024.1 hPa | - | - | - | - |
| 1777752733 | 14.44° C | 55% | 1024.1 hPa | - | - | - | - |
| 1777751833 | 15° C | 53% | 1024.1 hPa | - | - | - | - |
| 1777750933 | 15.56° C | 53% | 1023.9 hPa | - | - | - | - |
* Rain since midnight (hover to see other rain measurements)
** Current wind speed in m/s (hover to see current wind gust speed)